Time;durP1;ratioP1;P1;durP2;ratioP2;P2;SDS_P1;SDS_P2;PMS_P1;PMS_P2;Temp;Humidity;BMP_temperature;BMP_pressure;BME280_temperature;BME280_humidity;BME280_pressure;Samples;Min_cycle;Max_cycle;Signal;HPM_P1;HPM_P2
2021/04/11 00:00:38;;;;;;;3.13;1.30;;;-2.70;99.90;;;;;;5041889;28;20232;-79
2021/04/11 00:03:06;;;;;;;2.67;1.55;;;-2.80;99.90;;;;;;5064310;28;20631;-78
2021/04/11 00:05:35;;;;;;;3.08;1.35;;;-2.90;99.90;;;;;;5041026;28;20311;-78
2021/04/11 00:08:01;;;;;;;7.95;1.45;;;-3.00;99.90;;;;;;5047925;28;20208;-76
2021/04/11 00:10:31;;;;;;;3.55;1.17;;;-3.10;99.90;;;;;;5045013;28;20198;-77
2021/04/11 00:12:58;;;;;;;1.25;1.08;;;-3.10;99.90;;;;;;5058700;28;20197;-77
2021/04/11 00:15:24;;;;;;;2.17;1.20;;;-3.20;99.90;;;;;;5042076;28;20276;-77
2021/04/11 00:17:49;;;;;;;5.25;1.52;;;-3.10;99.90;;;;;;5051076;28;20326;-79
2021/04/11 00:20:16;;;;;;;2.45;1.40;;;-3.20;99.90;;;;;;5044964;28;20242;-78
2021/04/11 00:22:44;;;;;;;2.58;1.20;;;-3.30;99.90;;;;;;5041741;28;20644;-77
2021/04/11 00:25:12;;;;;;;7.82;1.50;;;-3.30;99.90;;;;;;5055871;28;20197;-76
2021/04/11 00:27:38;;;;;;;3.15;1.58;;;-3.30;99.90;;;;;;5044431;28;20911;-78
2021/04/11 00:30:05;;;;;;;3.65;1.48;;;-3.30;99.90;;;;;;5043842;28;20232;-75
2021/04/11 00:32:31;;;;;;;4.90;1.50;;;-3.30;99.90;;;;;;5044450;28;20192;-76
2021/04/11 00:34:57;;;;;;;3.25;1.50;;;-3.40;99.90;;;;;;5036784;28;20195;-77
2021/04/11 00:37:23;;;;;;;4.90;1.38;;;-3.40;99.90;;;;;;5055608;28;20279;-75
2021/04/11 00:39:48;;;;;;;3.30;1.40;;;-3.40;99.90;;;;;;5056440;28;20254;-76
2021/04/11 00:42:25;;;;;;;4.15;1.40;;;-3.40;99.90;;;;;;5045057;28;20251;-78
2021/04/11 00:45:03;;;;;;;1.40;1.17;;;-3.40;99.90;;;;;;5038865;28;20232;-77
2021/04/11 00:47:29;;;;;;;4.03;1.52;;;-3.50;99.90;;;;;;5062517;28;20216;-77
2021/04/11 00:49:55;;;;;;;2.53;1.33;;;-3.50;99.90;;;;;;5048764;28;20206;-76
2021/04/11 00:52:21;;;;;;;2.13;1.30;;;-3.50;99.90;;;;;;5060485;28;20193;-77
2021/04/11 00:54:46;;;;;;;5.32;1.42;;;-3.50;99.90;;;;;;5041940;28;20284;-77
2021/04/11 00:57:13;;;;;;;2.17;1.35;;;-3.60;99.90;;;;;;5057772;28;20189;-75
2021/04/11 00:59:39;;;;;;;5.88;1.55;;;-3.70;99.90;;;;;;5045966;28;20238;-80
2021/04/11 01:02:05;;;;;;;6.72;1.35;;;-3.80;99.90;;;;;;4947661;23;2877427;-81
2021/04/11 01:04:33;;;;;;;1.77;1.30;;;-3.80;99.90;;;;;;5069757;28;21127;-79
2021/04/11 01:07:03;;;;;;;3.88;1.40;;;-3.80;99.90;;;;;;5054206;28;20200;-79
2021/04/11 01:09:35;;;;;;;3.95;1.42;;;-3.90;99.90;;;;;;5067629;28;20685;-78
2021/04/11 01:12:06;;;;;;;3.05;1.17;;;-3.90;99.90;;;;;;5054473;28;21543;-79
2021/04/11 01:14:44;;;;;;;2.08;1.33;;;-3.90;99.90;;;;;;5068208;28;20209;-80
2021/04/11 01:17:16;;;;;;;4.78;1.50;;;-3.90;99.90;;;;;;5059302;28;20204;-79
2021/04/11 01:19:46;;;;;;;8.48;1.50;;;-3.90;99.90;;;;;;5069393;28;20204;-79
2021/04/11 01:22:36;;;;;;;5.18;1.60;;;-3.80;99.90;;;;;;5059736;28;20197;-79
2021/04/11 01:25:08;;;;;;;4.30;1.45;;;-3.80;99.90;;;;;;5053697;28;20208;-81
2021/04/11 01:27:36;;;;;;;1.65;1.40;;;-3.90;99.90;;;;;;5056146;28;20201;-80
2021/04/11 01:30:17;;;;;;;5.38;1.63;;;-4.00;99.90;;;;;;5052709;28;20232;-80
2021/04/11 01:32:43;;;;;;;3.72;1.00;;;-3.90;99.90;;;;;;5070660;28;20193;-80
2021/04/11 01:35:13;;;;;;;5.93;1.55;;;-3.90;99.90;;;;;;5053941;28;20193;-81
2021/04/11 01:37:39;;;;;;;5.43;1.33;;;-3.80;99.90;;;;;;5069186;28;20193;-79
2021/04/11 01:40:08;;;;;;;2.45;1.20;;;-3.70;99.90;;;;;;5072400;28;20220;-80
2021/04/11 01:42:34;;;;;;;2.05;1.38;;;-3.80;99.90;;;;;;5069239;28;20193;-80
2021/04/11 01:45:00;;;;;;;4.63;1.70;;;-3.80;99.90;;;;;;5051558;28;20200;-80
2021/04/11 01:47:29;;;;;;;5.00;1.70;;;-3.90;99.90;;;;;;5053803;28;20193;-80
2021/04/11 01:49:55;;;;;;;3.60;1.35;;;-4.00;99.90;;;;;;5052641;28;20296;-80
2021/04/11 01:52:27;;;;;;;2.25;1.30;;;-4.10;99.90;;;;;;5069012;28;20628;-80
2021/04/11 01:54:54;;;;;;;1.95;1.20;;;-4.20;99.90;;;;;;5057092;28;20658;-79
2021/04/11 01:57:31;;;;;;;3.28;1.30;;;-4.20;99.90;;;;;;5052510;28;20185;-79
2021/04/11 02:00:20;;;;;;;11.65;1.52;;;-4.30;99.90;;;;;;5058573;28;20209;-79
2021/04/11 02:02:57;;;;;;;3.03;1.40;;;-4.30;99.90;;;;;;5051634;28;20250;-80
2021/04/11 02:05:33;;;;;;;5.22;1.35;;;-4.40;99.90;;;;;;5052014;28;20199;-80
2021/04/11 02:07:59;;;;;;;2.53;1.40;;;-4.40;99.90;;;;;;5044460;28;20689;-81
2021/04/11 02:10:30;;;;;;;1.55;1.27;;;-4.40;99.90;;;;;;5057668;28;20223;-80
2021/04/11 02:12:57;;;;;;;3.25;1.40;;;-4.40;99.90;;;;;;5051908;28;20262;-80
2021/04/11 02:15:27;;;;;;;5.78;1.33;;;-4.40;99.90;;;;;;5052007;28;20192;-82
2021/04/11 02:17:55;;;;;;;9.88;1.50;;;-4.40;99.90;;;;;;5059556;28;20227;-80
2021/04/11 02:20:28;;;;;;;4.05;1.50;;;-4.40;99.90;;;;;;5068169;28;20188;-79
2021/04/11 02:22:55;;;;;;;5.90;1.50;;;-4.40;99.90;;;;;;5052573;28;20193;-79
2021/04/11 02:25:27;;;;;;;8.80;1.60;;;-4.50;99.90;;;;;;5070736;28;20236;-80
2021/04/11 02:27:55;;;;;;;10.75;1.50;;;-4.50;99.90;;;;;;5054730;28;20193;-81
2021/04/11 02:30:28;;;;;;;3.10;1.42;;;-4.60;99.90;;;;;;5052853;28;20246;-80
2021/04/11 02:32:57;;;;;;;4.78;1.30;;;-4.60;99.90;;;;;;5053216;28;20200;-79
2021/04/11 02:35:25;;;;;;;3.60;1.50;;;-4.60;99.90;;;;;;5050385;28;20272;-80
2021/04/11 02:37:58;;;;;;;9.90;1.73;;;-4.60;99.90;;;;;;5051767;28;20193;-79
2021/04/11 02:40:31;;;;;;;2.60;1.40;;;-4.50;99.90;;;;;;5068336;28;20189;-80
2021/04/11 02:42:58;;;;;;;2.22;1.42;;;-4.50;99.90;;;;;;5071010;28;20243;-80
2021/04/11 02:45:28;;;;;;;8.65;1.70;;;-4.50;99.90;;;;;;5051867;28;20694;-80
2021/04/11 02:47:55;;;;;;;3.55;1.50;;;-4.50;99.90;;;;;;5068154;28;20185;-79
2021/04/11 02:50:28;;;;;;;2.10;1.20;;;-4.50;99.90;;;;;;5050257;28;20284;-80
2021/04/11 02:53:20;;;;;;;2.47;1.30;;;-4.60;99.90;;;;;;5055525;28;20667;-79
2021/04/11 02:55:46;;;;;;;2.88;1.30;;;-4.60;99.90;;;;;;5051546;28;20203;-80
2021/04/11 02:58:15;;;;;;;5.07;1.60;;;-4.70;99.90;;;;;;5052081;28;20204;-78
2021/04/11 03:01:12;;;;;;;4.50;1.60;;;-4.70;99.90;;;;;;5051015;28;20239;-79
2021/04/11 03:03:38;;;;;;;4.13;1.50;;;-4.80;99.90;;;;;;5038036;28;20642;-79
2021/04/11 03:06:19;;;;;;;5.82;1.60;;;-4.80;99.90;;;;;;5058459;28;20208;-82
2021/04/11 03:08:48;;;;;;;2.53;1.30;;;-4.70;99.90;;;;;;5051119;28;20269;-84
2021/04/11 03:11:23;;;;;;;3.55;1.42;;;-4.70;99.90;;;;;;5069887;28;20204;-78
2021/04/11 03:13:51;;;;;;;4.85;1.38;;;-4.70;99.90;;;;;;5041660;28;20283;-79
2021/04/11 03:16:16;;;;;;;5.63;1.40;;;-4.70;99.90;;;;;;5049669;28;20694;-80
2021/04/11 03:18:43;;;;;;;3.88;1.60;;;-4.80;99.90;;;;;;5058267;28;20200;-78
2021/04/11 03:21:09;;;;;;;6.15;1.65;;;-4.80;99.90;;;;;;5050701;28;20197;-78
2021/04/11 03:23:37;;;;;;;7.65;1.50;;;-4.80;99.90;;;;;;5050007;28;20207;-79
2021/04/11 03:26:09;;;;;;;10.23;1.55;;;-4.90;99.90;;;;;;5067517;28;20234;-78
2021/04/11 03:28:41;;;;;;;2.28;1.35;;;-4.90;99.90;;;;;;5049546;28;20291;-79
2021/04/11 03:31:14;;;;;;;3.67;1.60;;;-5.00;99.90;;;;;;5067509;28;20189;-79
2021/04/11 03:33:44;;;;;;;10.25;1.58;;;-5.00;99.90;;;;;;5068473;28;20335;-83
2021/04/11 03:36:13;;;;;;;28.13;2.23;;;-5.00;99.90;;;;;;5049534;28;20197;-78
2021/04/11 03:38:40;;;;;;;3.50;1.80;;;-4.90;99.90;;;;;;5069462;28;20231;-78
2021/04/11 03:41:06;;;;;;;2.60;1.48;;;-4.90;99.90;;;;;;5051691;28;20236;-82
2021/04/11 03:43:41;;;;;;;3.53;2.05;;;-4.80;99.90;;;;;;5050149;28;20221;-80
2021/04/11 03:46:35;;;;;;;5.53;1.80;;;-4.80;99.90;;;;;;5069177;28;20707;-79
2021/04/11 03:49:02;;;;;;;2.72;1.60;;;-4.90;99.90;;;;;;5025331;28;20243;-79
2021/04/11 03:51:31;;;;;;;11.13;1.55;;;-5.00;99.90;;;;;;5051095;28;20652;-79
2021/04/11 03:54:14;;;;;;;7.53;2.00;;;-5.00;99.90;;;;;;5067306;28;20730;-81
2021/04/11 03:56:56;;;;;;;7.78;1.48;;;-4.90;99.90;;;;;;5052662;28;20205;-82
2021/04/11 03:59:28;;;;;;;6.43;1.63;;;-4.90;99.90;;;;;;5066772;28;20193;-80
2021/04/11 04:01:57;;;;;;;6.50;1.80;;;-4.90;99.90;;;;;;5054790;28;20197;-79
2021/04/11 04:04:25;;;;;;;8.45;1.77;;;-4.90;99.90;;;;;;5051017;28;20279;-79
2021/04/11 04:07:14;;;;;;;8.52;1.40;;;-4.80;99.90;;;;;;5065258;28;20254;-79
2021/04/11 04:09:43;;;;;;;5.53;1.65;;;-4.80;99.90;;;;;;5049987;28;20236;-80
2021/04/11 04:12:09;;;;;;;6.55;1.85;;;-4.70;99.90;;;;;;5048472;28;20599;-79
2021/04/11 04:14:53;;;;;;;3.80;1.63;;;-4.70;99.90;;;;;;5050826;28;20250;-78
2021/04/11 04:17:50;;;;;;;5.90;1.90;;;-4.70;99.90;;;;;;5050668;28;20279;-79
2021/04/11 04:20:49;;;;;;;4.93;1.83;;;-4.70;99.90;;;;;;5048853;28;20221;-80
2021/04/11 04:23:33;;;;;;;2.90;1.45;;;-4.70;99.90;;;;;;5071353;28;20197;-82
2021/04/11 04:26:22;;;;;;;6.37;1.47;;;-4.70;99.90;;;;;;5070765;28;20199;-79
2021/04/11 04:29:13;;;;;;;1.73;1.40;;;-4.70;99.90;;;;;;5071252;28;20239;-79
2021/04/11 04:31:56;;;;;;;2.97;1.63;;;-4.70;99.90;;;;;;5054841;28;20224;-79
2021/04/11 04:34:39;;;;;;;6.25;1.60;;;-4.70;99.90;;;;;;5070887;28;21737;-78
2021/04/11 04:37:25;;;;;;;4.40;1.20;;;-4.60;99.90;;;;;;5049645;28;20200;-80
2021/04/11 04:40:04;;;;;;;2.70;1.40;;;-4.60;99.90;;;;;;5059543;28;20208;-80
2021/04/11 04:42:54;;;;;;;2.88;1.42;;;-4.50;99.90;;;;;;5054452;28;20983;-81
2021/04/11 04:45:31;;;;;;;8.23;1.50;;;-4.40;99.90;;;;;;5050803;28;20266;-80
2021/04/11 04:48:10;;;;;;;7.25;1.77;;;-4.20;99.90;;;;;;5054807;28;20213;-79
2021/04/11 04:51:02;;;;;;;4.50;1.70;;;-4.10;99.90;;;;;;5054059;28;20207;-81
2021/04/11 04:53:52;;;;;;;3.50;1.80;;;-4.00;99.90;;;;;;5060318;28;20280;-82
2021/04/11 04:56:22;;;;;;;4.72;1.60;;;-3.90;99.90;;;;;;5071641;28;20216;-81
2021/04/11 04:58:58;;;;;;;6.80;2.42;;;-3.70;99.90;;;;;;5054786;28;20208;-81
2021/04/11 05:01:31;;;;;;;3.45;1.83;;;-3.60;99.90;;;;;;5056066;28;20196;-80
2021/04/11 05:04:06;;;;;;;4.00;2.42;;;-3.40;99.90;;;;;;5056722;28;20228;-81
2021/04/11 05:06:39;;;;;;;6.28;2.50;;;-3.30;99.90;;;;;;5069768;28;20192;-80
2021/04/11 05:09:27;;;;;;;14.80;2.45;;;-3.10;99.90;;;;;;5071664;28;20212;-81
2021/04/11 05:12:25;;;;;;;5.00;2.22;;;-3.00;99.90;;;;;;5052560;28;20196;-80
2021/04/11 05:14:56;;;;;;;18.75;2.80;;;-2.90;99.90;;;;;;5066236;28;20209;-83
2021/04/11 05:17:24;;;;;;;19.73;2.78;;;-2.80;99.90;;;;;;5051096;28;20254;-82
2021/04/11 05:19:55;;;;;;;18.95;2.85;;;-2.70;99.90;;;;;;5069836;28;20192;-80
2021/04/11 05:22:41;;;;;;;28.33;5.63;;;-2.60;99.90;;;;;;5053990;28;20204;-83
2021/04/11 05:25:15;;;;;;;65.00;4.32;;;-2.50;99.90;;;;;;5053743;28;20674;-81
2021/04/11 05:27:51;;;;;;;16.05;3.17;;;-2.50;99.90;;;;;;5071063;28;20234;-84
2021/04/11 05:30:23;;;;;;;76.18;3.97;;;-2.40;99.90;;;;;;5071257;28;20220;-81
2021/04/11 05:32:50;;;;;;;32.50;2.95;;;-2.20;99.90;;;;;;5071442;28;20208;-80
2021/04/11 05:35:16;;;;;;;47.72;3.17;;;-2.10;99.90;;;;;;5053890;28;20189;-81
2021/04/11 05:38:19;;;;;;;50.17;3.15;;;-1.90;99.90;;;;;;5055183;28;20216;-84
2021/04/11 05:40:56;;;;;;;63.72;4.57;;;-1.80;99.90;;;;;;5071572;28;20192;-81
2021/04/11 05:43:50;;;;;;;108.15;33.28;;;-1.70;99.90;;;;;;5070800;28;20571;-82
2021/04/11 05:46:24;;;;;;;86.82;22.63;;;-1.60;99.90;;;;;;5052542;28;20234;-81
2021/04/11 05:48:55;;;;;;;41.65;15.60;;;-1.50;99.90;;;;;;5053966;28;20232;-80
2021/04/11 05:51:27;;;;;;;58.22;10.40;;;-1.40;99.90;;;;;;5052225;28;20262;-80
2021/04/11 05:53:59;;;;;;;64.65;23.92;;;-1.30;99.90;;;;;;5054890;28;20196;-81
2021/04/11 05:56:32;;;;;;;59.97;13.75;;;-1.20;99.90;;;;;;5070292;28;20280;-79
2021/04/11 05:59:23;;;;;;;67.15;7.93;;;-1.10;99.90;;;;;;5047534;28;20197;-79
2021/04/11 06:01:58;;;;;;;33.00;6.45;;;-0.90;99.90;;;;;;5053953;28;20295;-80
2021/04/11 06:04:45;;;;;;;104.18;17.40;;;-0.80;99.90;;;;;;5055896;28;20196;-80
2021/04/11 06:07:19;;;;;;;46.25;8.88;;;-0.70;99.90;;;;;;5071634;28;20196;-80
2021/04/11 06:09:51;;;;;;;25.80;6.13;;;-0.60;99.90;;;;;;5068723;28;20205;-82
2021/04/11 06:12:38;;;;;;;26.88;8.10;;;-0.50;99.90;;;;;;5054126;28;20537;-79
2021/04/11 06:15:19;;;;;;;23.63;8.02;;;-0.30;99.90;;;;;;5066653;28;20203;-82
2021/04/11 06:17:48;;;;;;;8.82;4.82;;;-0.20;99.90;;;;;;5068779;28;20662;-82
2021/04/11 06:20:15;;;;;;;10.02;3.83;;;-0.10;99.90;;;;;;5069180;28;20196;-79
2021/04/11 06:23:03;;;;;;;12.60;3.80;;;0.00;99.90;;;;;;5054085;28;20201;-82
2021/04/11 06:25:40;;;;;;;16.17;4.00;;;0.10;99.90;;;;;;5066232;28;20197;-80
2021/04/11 06:28:18;;;;;;;22.90;6.30;;;0.30;99.90;;;;;;5071650;28;20196;-80
2021/04/11 06:31:05;;;;;;;15.18;5.50;;;0.40;99.90;;;;;;5052323;28;20189;-79
2021/04/11 06:33:32;;;;;;;21.48;8.35;;;0.40;99.90;;;;;;5052408;28;20201;-80
2021/04/11 06:36:17;;;;;;;17.30;3.60;;;0.60;99.90;;;;;;5053101;28;20925;-79
2021/04/11 06:38:45;;;;;;;21.48;5.18;;;0.70;99.90;;;;;;5053464;28;20684;-79
2021/04/11 06:41:39;;;;;;;13.80;3.47;;;0.80;99.90;;;;;;5069905;28;20685;-80
2021/04/11 06:44:39;;;;;;;11.00;2.65;;;0.90;99.90;;;;;;5069095;28;20197;-80
2021/04/11 06:47:39;;;;;;;15.45;4.60;;;1.10;99.90;;;;;;5053441;28;20200;-80
2021/04/11 06:50:16;;;;;;;14.32;5.18;;;1.30;99.90;;;;;;5048237;28;20208;-79
2021/04/11 06:53:04;;;;;;;19.55;3.78;;;1.40;99.90;;;;;;5068555;28;20196;-80
2021/04/11 06:55:45;;;;;;;10.23;2.78;;;1.40;99.90;;;;;;5070268;28;20671;-80
2021/04/11 06:58:40;;;;;;;11.00;2.72;;;1.50;99.90;;;;;;5045951;28;20721;-82
2021/04/11 07:01:43;;;;;;;22.92;4.13;;;1.50;99.90;;;;;;5066154;28;20266;-82
2021/04/11 07:05:00;;;;;;;33.20;10.02;;;1.70;99.90;;;;;;5067021;28;20207;-80
2021/04/11 07:07:37;;;;;;;11.93;3.33;;;1.90;99.90;;;;;;5047399;28;20205;-81
2021/04/11 07:10:41;;;;;;;28.70;4.43;;;1.90;99.90;;;;;;5055599;28;20239;-81
2021/04/11 07:13:34;;;;;;;15.02;3.03;;;2.00;99.90;;;;;;5073089;28;20192;-81
2021/04/11 07:16:18;;;;;;;19.00;2.90;;;2.00;99.90;;;;;;5051382;28;20197;-80
2021/04/11 07:19:21;;;;;;;20.20;3.45;;;2.20;99.90;;;;;;5052721;28;20200;-80
2021/04/11 07:22:38;;;;;;;17.40;4.03;;;2.30;99.90;;;;;;5024361;28;20200;-81
2021/04/11 07:28:25;;;;;;;33.63;5.78;;;2.50;99.90;;;;;;5069779;28;20266;-81
2021/04/11 07:31:26;;;;;;;21.90;4.32;;;2.60;99.90;;;;;;5057782;28;20220;-79
2021/04/11 07:34:14;;;;;;;25.20;3.78;;;2.70;99.90;;;;;;5067017;28;20197;-81
2021/04/11 07:37:13;;;;;;;11.80;2.60;;;2.90;99.90;;;;;;5047502;28;20305;-80
2021/04/11 07:40:27;;;;;;;14.95;2.80;;;3.00;99.90;;;;;;5046965;28;20201;-81
2021/04/11 07:43:19;;;;;;;10.70;2.70;;;2.90;99.90;;;;;;5045383;28;20662;-80
2021/04/11 07:46:09;;;;;;;7.63;2.13;;;3.00;99.90;;;;;;5065977;28;20199;-83
2021/04/11 07:48:53;;;;;;;16.92;2.58;;;3.00;99.90;;;;;;5065036;28;20212;-80
2021/04/11 07:51:51;;;;;;;10.57;2.55;;;3.00;99.90;;;;;;5058258;28;20200;-80
2021/04/11 07:54:32;;;;;;;8.68;2.83;;;3.20;99.90;;;;;;5036944;28;20356;-81
2021/04/11 07:57:13;;;;;;;12.30;2.42;;;3.40;99.90;;;;;;5053742;28;20258;-80
2021/04/11 08:00:00;;;;;;;13.68;2.53;;;3.50;99.90;;;;;;5052042;28;20667;-80
2021/04/11 08:02:51;;;;;;;9.35;2.38;;;3.40;99.90;;;;;;5051662;28;20335;-80
2021/04/11 08:05:38;;;;;;;18.35;2.63;;;3.50;99.90;;;;;;5036741;28;20219;-81
2021/04/11 08:08:40;;;;;;;14.50;3.17;;;3.50;99.90;;;;;;5038335;28;20616;-81
2021/04/11 08:11:27;;;;;;;10.95;2.65;;;3.50;99.90;;;;;;5019307;28;20207;-81
2021/04/11 08:14:37;;;;;;;14.45;2.92;;;3.70;99.90;;;;;;5043520;28;20201;-81
2021/04/11 08:17:45;;;;;;;19.67;9.20;;;3.70;99.90;;;;;;5055138;28;20197;-82
2021/04/11 08:20:36;;;;;;;11.38;2.55;;;3.90;99.90;;;;;;5001871;28;20232;-81
2021/04/11 08:23:11;;;;;;;15.25;3.50;;;3.90;99.90;;;;;;5039431;28;20200;-81
2021/04/11 08:25:37;;;;;;;18.52;2.97;;;3.90;99.90;;;;;;5057057;28;20199;-81
2021/04/11 08:28:37;;;;;;;23.23;7.82;;;3.90;99.90;;;;;;5055184;28;20330;-80
2021/04/11 08:31:25;;;;;;;14.45;6.05;;;4.10;99.90;;;;;;5038685;28;20689;-80
2021/04/11 08:34:26;;;;;;;15.40;3.85;;;4.10;99.90;;;;;;5038623;28;20258;-82
2021/04/11 08:37:07;;;;;;;14.65;3.25;;;4.20;99.90;;;;;;5029099;28;20200;-81
2021/04/11 08:39:51;;;;;;;19.73;4.25;;;4.20;99.90;;;;;;5036496;28;20295;-82
2021/04/11 08:42:45;;;;;;;17.98;2.70;;;4.50;99.90;;;;;;5056339;28;20633;-82
2021/04/11 08:45:35;;;;;;;20.92;3.63;;;4.40;99.90;;;;;;5056697;28;20739;-84
2021/04/11 08:48:27;;;;;;;21.17;7.22;;;4.60;99.90;;;;;;5053146;28;20627;-82
2021/04/11 08:50:55;;;;;;;16.92;3.55;;;4.90;99.90;;;;;;5042664;28;20204;-82
2021/04/11 08:53:30;;;;;;;18.30;4.55;;;5.00;99.90;;;;;;5044630;28;20197;-81
2021/04/11 08:56:06;;;;;;;18.58;4.65;;;5.10;99.90;;;;;;5063619;28;20300;-81
2021/04/11 08:58:47;;;;;;;13.07;3.00;;;5.10;99.90;;;;;;5059136;28;20246;-83
2021/04/11 09:01:38;;;;;;;16.27;2.53;;;5.20;99.90;;;;;;5055048;28;20287;-80
2021/04/11 09:04:21;;;;;;;9.80;2.20;;;5.30;99.90;;;;;;5037819;28;20695;-80
2021/04/11 09:07:14;;;;;;;12.60;2.53;;;5.30;99.90;;;;;;5054881;28;20735;-81
2021/04/11 09:10:22;;;;;;;10.55;2.28;;;5.30;99.90;;;;;;5058471;28;20212;-80
2021/04/11 09:13:10;;;;;;;8.40;2.75;;;5.40;99.90;;;;;;5048818;28;20286;-81
2021/04/11 09:15:54;;;;;;;14.90;3.00;;;5.60;99.90;;;;;;5060827;28;21112;-81
2021/04/11 09:18:38;;;;;;;14.73;3.03;;;5.70;99.90;;;;;;5064621;28;20226;-81
2021/04/11 09:21:16;;;;;;;8.80;2.15;;;5.80;99.90;;;;;;5062217;28;20205;-81
2021/04/11 09:24:00;;;;;;;10.75;2.30;;;6.00;99.90;;;;;;5035520;28;20216;-81
2021/04/11 09:26:29;;;;;;;10.85;2.17;;;6.30;99.90;;;;;;5061389;28;20196;-82
2021/04/11 09:29:32;;;;;;;12.95;2.85;;;6.10;99.90;;;;;;5054471;28;20232;-84
2021/04/11 09:32:16;;;;;;;13.70;4.28;;;6.10;99.90;;;;;;5058220;28;20230;-80
2021/04/11 09:35:24;;;;;;;12.85;3.30;;;6.30;99.90;;;;;;5062251;28;20313;-84
2021/04/11 09:38:23;;;;;;;11.50;2.63;;;6.40;99.90;;;;;;5055121;28;20292;-80
2021/04/11 09:41:36;;;;;;;;;;;;;;;;;;;;;
2021/04/11 09:44:54;;;;;;;;;;;;;;;;;;;;;
2021/04/11 09:47:54;;;;;;;;;;;;;;;;;;;;;
2021/04/11 09:51:02;;;;;;;15.75;2.47;;;6.70;99.90;;;;;;5056001;28;20576;-81
2021/04/11 09:54:10;;;;;;;8.85;2.47;;;6.80;99.90;;;;;;5056786;28;20534;-83
2021/04/11 09:56:54;;;;;;;12.95;2.22;;;6.80;99.90;;;;;;5045174;28;20227;-81
2021/04/11 09:59:31;;;;;;;8.27;2.15;;;6.80;99.90;;;;;;5057162;28;20251;-82
2021/04/11 10:02:26;;;;;;;;;;;;;;;;;;;;;
2021/04/11 10:05:25;;;;;;;13.25;2.33;;;7.20;99.90;;;;;;5063054;28;20663;-81
2021/04/11 10:08:32;;;;;;;8.75;2.22;;;7.50;99.90;;;;;;5060595;28;20621;-80
2021/04/11 10:11:33;;;;;;;10.80;2.38;;;7.70;99.90;;;;;;5061832;28;20581;-81
2021/04/11 10:14:20;;;;;;;10.45;2.20;;;7.70;99.90;;;;;;5063761;28;20559;-81
2021/04/11 10:17:02;;;;;;;13.57;2.17;;;7.60;99.90;;;;;;5060149;28;20668;-83
2021/04/11 10:19:50;;;;;;;10.55;2.47;;;7.80;99.90;;;;;;5038359;28;20670;-81
2021/04/11 10:22:56;;;;;;;17.65;2.60;;;7.90;99.90;;;;;;5046237;28;20280;-81
2021/04/11 10:25:50;;;;;;;10.00;2.08;;;7.90;99.90;;;;;;5041344;28;20236;-81
2021/04/11 10:28:54;;;;;;;11.60;2.47;;;8.30;99.90;;;;;;5041651;28;20266;-81
2021/04/11 10:31:48;;;;;;;;;;;;;;;;;;;;;
2021/04/11 10:34:55;;;;;;;9.73;2.30;;;8.30;99.90;;;;;;5058115;28;20197;-81
2021/04/11 10:37:36;;;;;;;13.18;1.95;;;8.30;99.90;;;;;;5009299;28;20950;-83
2021/04/11 10:40:32;;;;;;;7.80;2.17;;;8.40;99.90;;;;;;5056398;28;20574;-81
2021/04/11 10:43:27;;;;;;;12.02;2.50;;;8.50;99.90;;;;;;5062418;28;20193;-82
2021/04/11 10:46:27;;;;;;;7.60;2.22;;;8.40;99.90;;;;;;5042469;28;20201;-81
2021/04/11 10:49:17;;;;;;;6.72;1.80;;;7.70;99.90;;;;;;5061663;28;20213;-82
2021/04/11 10:52:00;;;;;;;8.38;2.35;;;7.80;99.90;;;;;;5041641;28;20597;-81
2021/04/11 10:54:57;;;;;;;10.93;2.67;;;7.90;99.90;;;;;;5041731;28;20604;-81
2021/04/11 10:57:44;;;;;;;10.95;2.08;;;7.70;99.90;;;;;;5062992;28;20678;-81
2021/04/11 11:00:28;;;;;;;11.50;2.15;;;8.00;99.90;;;;;;5039858;28;20207;-82
2021/04/11 11:03:21;;;;;;;9.93;2.10;;;7.80;99.90;;;;;;5042358;28;20347;-81
2021/04/11 11:06:09;;;;;;;10.80;2.28;;;7.80;99.90;;;;;;5055952;28;20201;-82
2021/04/11 11:09:06;;;;;;;9.23;2.03;;;7.60;99.90;;;;;;5039677;28;20228;-82
2021/04/11 11:12:07;;;;;;;6.75;1.77;;;7.60;99.90;;;;;;5042057;28;20763;-82
2021/04/11 11:14:51;;;;;;;7.47;1.95;;;7.60;99.90;;;;;;5056961;28;20189;-82
2021/04/11 11:17:40;;;;;;;11.77;2.28;;;7.50;99.90;;;;;;5059061;28;20201;-82
2021/04/11 11:20:22;;;;;;;7.00;1.90;;;7.60;99.90;;;;;;5057717;28;20826;-82
2021/04/11 11:23:25;;;;;;;8.35;1.92;;;7.50;99.90;;;;;;5056304;28;20203;-81
2021/04/11 11:25:59;;;;;;;7.40;1.95;;;7.50;99.90;;;;;;5041570;28;20358;-82
2021/04/11 11:28:52;;;;;;;8.02;1.88;;;7.50;99.90;;;;;;5052010;28;20248;-81
2021/04/11 11:31:33;;;;;;;9.15;2.30;;;7.50;99.90;;;;;;5035187;28;20199;-82
2021/04/11 11:34:21;;;;;;;8.88;2.95;;;7.50;99.90;;;;;;5058159;28;20220;-81
2021/04/11 11:37:09;;;;;;;8.23;1.80;;;7.40;99.90;;;;;;5059387;28;20197;-81
2021/04/11 11:40:03;;;;;;;8.10;2.28;;;7.40;99.90;;;;;;5037832;28;20201;-82
2021/04/11 11:42:50;;;;;;;10.20;2.33;;;7.40;99.90;;;;;;5059451;28;20307;-81
2021/04/11 11:45:25;;;;;;;6.20;2.15;;;7.60;99.90;;;;;;5058477;28;20200;-81
2021/04/11 11:47:56;;;;;;;5.78;2.00;;;7.50;99.90;;;;;;5040784;28;20215;-81
2021/04/11 11:50:40;;;;;;;12.80;2.70;;;7.50;99.90;;;;;;5056225;28;20209;-84
2021/04/11 11:53:19;;;;;;;7.15;2.17;;;7.60;99.90;;;;;;5043794;28;20203;-84
2021/04/11 11:56:03;;;;;;;7.28;2.17;;;7.60;99.90;;;;;;5038191;28;20196;-85
2021/04/11 11:58:38;;;;;;;7.32;2.17;;;7.60;99.90;;;;;;5058165;28;20749;-81
2021/04/11 12:01:44;;;;;;;8.90;2.05;;;7.70;99.90;;;;;;5030982;28;20431;-80
2021/04/11 12:04:38;;;;;;;11.57;2.60;;;7.90;99.90;;;;;;4974316;28;20429;-79
2021/04/11 12:07:20;;;;;;;11.23;2.75;;;8.30;99.90;;;;;;5038176;28;20887;-80
2021/04/11 12:09:50;;;;;;;9.15;2.20;;;8.50;99.90;;;;;;5037796;28;20307;-80
2021/04/11 12:12:30;;;;;;;5.88;1.83;;;8.90;99.90;;;;;;5022143;28;20220;-85
2021/04/11 12:15:02;;;;;;;6.28;1.85;;;8.90;99.90;;;;;;5017625;28;20320;-82
2021/04/11 12:17:53;;;;;;;19.52;9.80;;;8.60;99.90;;;;;;5039309;28;20689;-83
2021/04/11 12:20:51;;;;;;;10.65;4.63;;;8.30;99.90;;;;;;5020011;28;20683;-83
2021/04/11 12:23:17;;;;;;;10.18;1.83;;;8.20;99.90;;;;;;5038364;28;20535;-82
2021/04/11 12:25:50;;;;;;;3.50;1.70;;;7.90;99.90;;;;;;5038327;28;20197;-83
2021/04/11 12:28:26;;;;;;;5.90;2.65;;;7.90;99.90;;;;;;5023170;28;20197;-83
2021/04/11 12:31:13;;;;;;;4.13;1.70;;;7.70;99.90;;;;;;5021442;28;20899;-84
2021/04/11 12:34:01;;;;;;;5.18;1.40;;;7.70;99.90;;;;;;5037874;28;20197;-83
2021/04/11 12:37:07;;;;;;;5.82;2.10;;;7.70;99.90;;;;;;5023474;28;20192;-84
2021/04/11 12:39:34;;;;;;;6.05;1.80;;;7.60;99.90;;;;;;5015274;28;20644;-82
2021/04/11 12:42:21;;;;;;;4.97;1.77;;;7.50;99.90;;;;;;5023336;28;20690;-83
2021/04/11 12:45:17;;;;;;;6.55;1.65;;;7.60;99.90;;;;;;5042890;28;20205;-82
2021/04/11 12:47:57;;;;;;;5.90;1.70;;;7.50;99.90;;;;;;5040488;28;20197;-83
2021/04/11 12:50:31;;;;;;;6.75;2.13;;;7.50;99.90;;;;;;5040122;28;20213;-84
2021/04/11 12:53:20;;;;;;;4.68;2.03;;;7.70;99.90;;;;;;5026653;28;20558;-83
2021/04/11 12:55:48;;;;;;;5.70;1.70;;;7.80;99.90;;;;;;4942210;28;20216;-82
2021/04/11 12:58:37;;;;;;;5.07;1.70;;;7.80;99.90;;;;;;5033302;28;20767;-82
2021/04/11 13:01:22;;;;;;;5.20;1.58;;;7.80;99.90;;;;;;5042174;28;20737;-85
2021/04/11 13:04:04;;;;;;;5.78;1.73;;;7.90;99.90;;;;;;5036322;28;20224;-82
2021/04/11 13:06:52;;;;;;;3.00;1.60;;;7.90;99.90;;;;;;5059545;28;20207;-83
2021/04/11 13:09:39;;;;;;;;;;;;;;;;;;;;;
2021/04/11 13:12:05;;;;;;;3.70;1.65;;;7.60;99.90;;;;;;5056104;28;20191;-82
2021/04/11 13:14:35;;;;;;;3.45;1.45;;;7.40;99.90;;;;;;5059328;28;20559;-83
2021/04/11 13:17:18;;;;;;;7.07;1.70;;;7.50;99.90;;;;;;5044253;28;20193;-84
2021/04/11 13:19:55;;;;;;;3.30;1.52;;;7.60;99.90;;;;;;5040930;28;20582;-86
2021/04/11 13:22:38;;;;;;;3.05;1.45;;;7.70;99.90;;;;;;5043843;28;20204;-84
2021/04/11 13:25:16;;;;;;;6.18;1.80;;;7.50;99.90;;;;;;5059139;28;20212;-86
2021/04/11 13:28:21;;;;;;;3.08;1.35;;;7.50;99.90;;;;;;5060337;28;20192;-84
2021/04/11 13:31:26;;;;;;;3.75;1.40;;;7.50;99.50;;;;;;5036424;28;20689;-84
2021/04/11 13:33:58;;;;;;;3.38;1.35;;;7.60;99.10;;;;;;5030929;28;20788;-84
2021/04/11 13:36:30;;;;;;;6.45;1.77;;;7.40;98.80;;;;;;5057739;28;20950;-83
2021/04/11 13:39:24;;;;;;;3.10;1.40;;;7.30;98.70;;;;;;5042765;28;20506;-83
2021/04/11 13:42:26;;;;;;;4.30;1.63;;;7.40;98.50;;;;;;5043964;28;20205;-84
2021/04/11 13:45:58;;;;;;;;;;;;;;;;;;;;;
2021/04/11 13:48:55;;;;;;;5.13;1.50;;;7.20;96.90;;;;;;5037711;28;20201;-84
2021/04/11 13:51:50;;;;;;;4.25;1.80;;;7.20;96.40;;;;;;5055483;28;20237;-83
2021/04/11 13:54:26;;;;;;;7.15;1.25;;;7.30;95.90;;;;;;5032429;28;20283;-81
2021/04/11 13:57:10;;;;;;;1.90;1.33;;;7.20;95.60;;;;;;5043248;28;20196;-82
2021/04/11 14:00:02;;;;;;;4.30;1.58;;;7.10;96.20;;;;;;5060588;28;20271;-83
2021/04/11 14:02:42;;;;;;;4.45;1.58;;;7.20;96.40;;;;;;5060437;28;20223;-83
2021/04/11 14:05:17;;;;;;;3.95;1.50;;;7.20;95.30;;;;;;5043361;28;20213;-84
2021/04/11 14:07:57;;;;;;;3.10;1.30;;;7.20;95.70;;;;;;5045837;28;20610;-81
2021/04/11 14:10:52;;;;;;;3.83;1.42;;;7.40;95.20;;;;;;5041489;28;20208;-82
2021/04/11 14:13:34;;;;;;;5.55;1.58;;;7.40;95.90;;;;;;5023053;28;20618;-83